sensor_id;sensor_type;location;lat;lon;timestamp;P1;durP1;ratioP1;P2;durP2;ratioP2
73869;SDS011;64924;42.140;24.762;2023-11-18T00:00:31;2.67;;;1.50;;
73869;SDS011;64924;42.140;24.762;2023-11-18T00:02:57;3.92;;;1.70;;
73869;SDS011;64924;42.140;24.762;2023-11-18T00:05:22;2.28;;;1.70;;
73869;SDS011;64924;42.140;24.762;2023-11-18T00:07:49;2.53;;;1.67;;
73869;SDS011;64924;42.140;24.762;2023-11-18T00:10:15;3.17;;;1.40;;
73869;SDS011;64924;42.140;24.762;2023-11-18T00:12:41;2.17;;;1.33;;
73869;SDS011;64924;42.140;24.762;2023-11-18T00:15:06;2.85;;;1.98;;
73869;SDS011;64924;42.140;24.762;2023-11-18T00:17:36;2.13;;;1.52;;
73869;SDS011;64924;42.140;24.762;2023-11-18T00:20:03;2.85;;;1.60;;
73869;SDS011;64924;42.140;24.762;2023-11-18T00:22:34;3.83;;;1.65;;
73869;SDS011;64924;42.140;24.762;2023-11-18T00:25:00;2.05;;;1.25;;
73869;SDS011;64924;42.140;24.762;2023-11-18T00:27:26;2.75;;;1.30;;
73869;SDS011;64924;42.140;24.762;2023-11-18T00:29:51;1.95;;;1.23;;
73869;SDS011;64924;42.140;24.762;2023-11-18T00:32:18;2.25;;;1.38;;
73869;SDS011;64924;42.140;24.762;2023-11-18T00:34:44;2.92;;;1.40;;
73869;SDS011;64924;42.140;24.762;2023-11-18T00:37:09;2.15;;;1.17;;
73869;SDS011;64924;42.140;24.762;2023-11-18T00:39:35;2.47;;;1.20;;
73869;SDS011;64924;42.140;24.762;2023-11-18T00:42:02;1.20;;;0.85;;
73869;SDS011;64924;42.140;24.762;2023-11-18T00:44:27;2.03;;;1.10;;
73869;SDS011;64924;42.140;24.762;2023-11-18T00:46:53;1.92;;;1.25;;
73869;SDS011;64924;42.140;24.762;2023-11-18T00:49:19;3.97;;;1.20;;
73869;SDS011;64924;42.140;24.762;2023-11-18T00:51:44;2.25;;;1.55;;
73869;SDS011;64924;42.140;24.762;2023-11-18T00:54:10;1.52;;;1.10;;
73869;SDS011;64924;42.140;24.762;2023-11-18T00:56:36;2.25;;;1.38;;
73869;SDS011;64924;42.140;24.762;2023-11-18T00:59:01;2.33;;;1.50;;
73869;SDS011;64924;42.140;24.762;2023-11-18T01:01:27;1.98;;;1.35;;
73869;SDS011;64924;42.140;24.762;2023-11-18T01:03:53;2.00;;;1.50;;
73869;SDS011;64924;42.140;24.762;2023-11-18T01:06:19;3.17;;;1.60;;
73869;SDS011;64924;42.140;24.762;2023-11-18T01:08:44;2.35;;;1.65;;
73869;SDS011;64924;42.140;24.762;2023-11-18T01:11:11;3.55;;;1.98;;
73869;SDS011;64924;42.140;24.762;2023-11-18T01:13:41;3.80;;;2.20;;
73869;SDS011;64924;42.140;24.762;2023-11-18T01:16:06;2.78;;;1.85;;
73869;SDS011;64924;42.140;24.762;2023-11-18T01:18:32;8.40;;;2.22;;
73869;SDS011;64924;42.140;24.762;2023-11-18T01:20:57;2.72;;;2.10;;
73869;SDS011;64924;42.140;24.762;2023-11-18T01:23:24;3.47;;;2.10;;
73869;SDS011;64924;42.140;24.762;2023-11-18T01:25:49;3.03;;;2.20;;
73869;SDS011;64924;42.140;24.762;2023-11-18T01:28:16;2.30;;;1.75;;
73869;SDS011;64924;42.140;24.762;2023-11-18T01:30:41;3.85;;;2.42;;
73869;SDS011;64924;42.140;24.762;2023-11-18T01:33:09;3.42;;;2.20;;
73869;SDS011;64924;42.140;24.762;2023-11-18T01:35:35;3.40;;;2.00;;
73869;SDS011;64924;42.140;24.762;2023-11-18T01:38:01;2.58;;;1.88;;
73869;SDS011;64924;42.140;24.762;2023-11-18T01:40:27;2.05;;;1.60;;
73869;SDS011;64924;42.140;24.762;2023-11-18T01:42:55;2.85;;;1.60;;
73869;SDS011;64924;42.140;24.762;2023-11-18T01:45:20;3.17;;;1.45;;
73869;SDS011;64924;42.140;24.762;2023-11-18T01:47:46;2.08;;;1.30;;
73869;SDS011;64924;42.140;24.762;2023-11-18T01:50:13;2.05;;;1.63;;
73869;SDS011;64924;42.140;24.762;2023-11-18T01:52:39;3.47;;;1.05;;
73869;SDS011;64924;42.140;24.762;2023-11-18T01:55:06;2.13;;;1.35;;
73869;SDS011;64924;42.140;24.762;2023-11-18T01:57:32;1.80;;;1.02;;
73869;SDS011;64924;42.140;24.762;2023-11-18T01:59:59;2.08;;;0.88;;
73869;SDS011;64924;42.140;24.762;2023-11-18T02:02:25;2.03;;;0.98;;
73869;SDS011;64924;42.140;24.762;2023-11-18T02:04:51;2.08;;;0.80;;
73869;SDS011;64924;42.140;24.762;2023-11-18T02:07:17;2.17;;;1.20;;
73869;SDS011;64924;42.140;24.762;2023-11-18T02:09:43;1.55;;;0.82;;
73869;SDS011;64924;42.140;24.762;2023-11-18T02:12:21;0.95;;;0.75;;
73869;SDS011;64924;42.140;24.762;2023-11-18T02:14:54;1.63;;;0.90;;
73869;SDS011;64924;42.140;24.762;2023-11-18T02:17:22;1.50;;;0.80;;
73869;SDS011;64924;42.140;24.762;2023-11-18T02:19:53;2.38;;;0.90;;
73869;SDS011;64924;42.140;24.762;2023-11-18T02:22:24;1.55;;;0.90;;
73869;SDS011;64924;42.140;24.762;2023-11-18T02:24:50;2.03;;;1.17;;
73869;SDS011;64924;42.140;24.762;2023-11-18T02:27:16;1.10;;;0.80;;
73869;SDS011;64924;42.140;24.762;2023-11-18T02:29:44;2.13;;;1.20;;
73869;SDS011;64924;42.140;24.762;2023-11-18T02:32:20;0.88;;;0.77;;
73869;SDS011;64924;42.140;24.762;2023-11-18T02:37:23;1.00;;;0.82;;
73869;SDS011;64924;42.140;24.762;2023-11-18T02:39:52;1.15;;;0.98;;
73869;SDS011;64924;42.140;24.762;2023-11-18T02:42:24;0.88;;;0.70;;
73869;SDS011;64924;42.140;24.762;2023-11-18T02:44:50;2.75;;;0.90;;
73869;SDS011;64924;42.140;24.762;2023-11-18T02:47:24;1.00;;;0.60;;
73869;SDS011;64924;42.140;24.762;2023-11-18T02:49:53;1.95;;;0.60;;
73869;SDS011;64924;42.140;24.762;2023-11-18T02:52:19;1.17;;;0.60;;
73869;SDS011;64924;42.140;24.762;2023-11-18T02:54:45;3.63;;;0.68;;
73869;SDS011;64924;42.140;24.762;2023-11-18T02:57:10;2.45;;;0.60;;
73869;SDS011;64924;42.140;24.762;2023-11-18T02:59:38;3.22;;;0.60;;
73869;SDS011;64924;42.140;24.762;2023-11-18T03:02:04;2.45;;;0.60;;
73869;SDS011;64924;42.140;24.762;2023-11-18T03:04:31;1.30;;;0.57;;
73869;SDS011;64924;42.140;24.762;2023-11-18T03:06:56;0.50;;;0.50;;
73869;SDS011;64924;42.140;24.762;2023-11-18T03:09:22;2.03;;;0.73;;
73869;SDS011;64924;42.140;24.762;2023-11-18T03:11:52;1.13;;;0.47;;
73869;SDS011;64924;42.140;24.762;2023-11-18T03:14:18;0.50;;;0.50;;
73869;SDS011;64924;42.140;24.762;2023-11-18T03:16:44;1.20;;;0.73;;
73869;SDS011;64924;42.140;24.762;2023-11-18T03:19:09;1.10;;;0.63;;
73869;SDS011;64924;42.140;24.762;2023-11-18T03:21:35;2.92;;;0.50;;
73869;SDS011;64924;42.140;24.762;2023-11-18T03:24:01;2.55;;;0.57;;
73869;SDS011;64924;42.140;24.762;2023-11-18T03:26:27;0.98;;;0.50;;
73869;SDS011;64924;42.140;24.762;2023-11-18T03:28:52;2.55;;;0.50;;
73869;SDS011;64924;42.140;24.762;2023-11-18T03:31:18;0.98;;;0.50;;
73869;SDS011;64924;42.140;24.762;2023-11-18T03:33:44;1.05;;;0.63;;
73869;SDS011;64924;42.140;24.762;2023-11-18T03:36:10;1.38;;;0.70;;
73869;SDS011;64924;42.140;24.762;2023-11-18T03:38:37;1.38;;;0.80;;
73869;SDS011;64924;42.140;24.762;2023-11-18T03:41:03;1.33;;;0.65;;
73869;SDS011;64924;42.140;24.762;2023-11-18T03:43:28;0.73;;;0.50;;
73869;SDS011;64924;42.140;24.762;2023-11-18T03:45:54;0.50;;;0.50;;
73869;SDS011;64924;42.140;24.762;2023-11-18T03:48:22;1.38;;;0.50;;
73869;SDS011;64924;42.140;24.762;2023-11-18T03:50:48;0.95;;;0.73;;
73869;SDS011;64924;42.140;24.762;2023-11-18T03:53:13;0.68;;;0.52;;
73869;SDS011;64924;42.140;24.762;2023-11-18T03:55:39;0.65;;;0.40;;
73869;SDS011;64924;42.140;24.762;2023-11-18T03:58:04;3.83;;;0.85;;
73869;SDS011;64924;42.140;24.762;2023-11-18T04:00:30;1.38;;;0.70;;
73869;SDS011;64924;42.140;24.762;2023-11-18T04:02:56;0.98;;;0.60;;
73869;SDS011;64924;42.140;24.762;2023-11-18T04:05:22;2.65;;;0.77;;
73869;SDS011;64924;42.140;24.762;2023-11-18T04:07:47;1.15;;;0.73;;
73869;SDS011;64924;42.140;24.762;2023-11-18T04:10:13;0.85;;;0.45;;
73869;SDS011;64924;42.140;24.762;2023-11-18T04:12:38;2.78;;;1.17;;
73869;SDS011;64924;42.140;24.762;2023-11-18T04:15:04;0.80;;;0.68;;
73869;SDS011;64924;42.140;24.762;2023-11-18T04:17:31;0.60;;;0.45;;
73869;SDS011;64924;42.140;24.762;2023-11-18T04:19:57;1.02;;;0.65;;
73869;SDS011;64924;42.140;24.762;2023-11-18T04:22:23;1.20;;;0.70;;
73869;SDS011;64924;42.140;24.762;2023-11-18T04:24:48;0.98;;;0.63;;
73869;SDS011;64924;42.140;24.762;2023-11-18T04:27:15;0.88;;;0.60;;
73869;SDS011;64924;42.140;24.762;2023-11-18T04:29:40;2.25;;;0.60;;
73869;SDS011;64924;42.140;24.762;2023-11-18T04:32:06;1.20;;;0.80;;
73869;SDS011;64924;42.140;24.762;2023-11-18T04:34:36;1.17;;;0.73;;
73869;SDS011;64924;42.140;24.762;2023-11-18T04:37:02;1.40;;;0.77;;
73869;SDS011;64924;42.140;24.762;2023-11-18T04:39:28;0.73;;;0.63;;
73869;SDS011;64924;42.140;24.762;2023-11-18T04:41:59;2.58;;;0.70;;
73869;SDS011;64924;42.140;24.762;2023-11-18T04:44:26;2.85;;;1.13;;
73869;SDS011;64924;42.140;24.762;2023-11-18T04:46:52;1.05;;;0.60;;
73869;SDS011;64924;42.140;24.762;2023-11-18T04:49:17;1.35;;;0.90;;
73869;SDS011;64924;42.140;24.762;2023-11-18T04:51:43;1.13;;;0.85;;
73869;SDS011;64924;42.140;24.762;2023-11-18T04:54:08;1.30;;;0.80;;
73869;SDS011;64924;42.140;24.762;2023-11-18T04:56:35;1.15;;;0.90;;
73869;SDS011;64924;42.140;24.762;2023-11-18T04:59:02;2.08;;;1.60;;
73869;SDS011;64924;42.140;24.762;2023-11-18T05:01:33;2.40;;;1.33;;
73869;SDS011;64924;42.140;24.762;2023-11-18T05:03:59;2.00;;;1.25;;
73869;SDS011;64924;42.140;24.762;2023-11-18T05:06:25;1.80;;;1.63;;
73869;SDS011;64924;42.140;24.762;2023-11-18T05:08:51;1.92;;;1.40;;
73869;SDS011;64924;42.140;24.762;2023-11-18T05:11:17;2.28;;;1.38;;
73869;SDS011;64924;42.140;24.762;2023-11-18T05:13:42;2.90;;;1.73;;
73869;SDS011;64924;42.140;24.762;2023-11-18T05:16:08;3.08;;;1.50;;
73869;SDS011;64924;42.140;24.762;2023-11-18T05:18:35;1.95;;;1.60;;
73869;SDS011;64924;42.140;24.762;2023-11-18T05:21:03;1.45;;;1.35;;
73869;SDS011;64924;42.140;24.762;2023-11-18T05:23:30;1.77;;;1.40;;
73869;SDS011;64924;42.140;24.762;2023-11-18T05:25:57;3.25;;;1.63;;
73869;SDS011;64924;42.140;24.762;2023-11-18T05:28:26;1.92;;;1.65;;
73869;SDS011;64924;42.140;24.762;2023-11-18T05:30:51;2.88;;;1.60;;
73869;SDS011;64924;42.140;24.762;2023-11-18T05:33:17;2.95;;;1.65;;
73869;SDS011;64924;42.140;24.762;2023-11-18T05:35:46;1.80;;;1.70;;
73869;SDS011;64924;42.140;24.762;2023-11-18T05:38:15;2.00;;;1.70;;
73869;SDS011;64924;42.140;24.762;2023-11-18T05:40:47;2.92;;;1.92;;
73869;SDS011;64924;42.140;24.762;2023-11-18T05:43:25;2.10;;;1.75;;
73869;SDS011;64924;42.140;24.762;2023-11-18T05:45:56;2.20;;;1.60;;
73869;SDS011;64924;42.140;24.762;2023-11-18T05:48:45;3.78;;;2.17;;
73869;SDS011;64924;42.140;24.762;2023-11-18T05:51:12;4.10;;;1.92;;
73869;SDS011;64924;42.140;24.762;2023-11-18T05:53:41;2.17;;;1.77;;
73869;SDS011;64924;42.140;24.762;2023-11-18T05:56:14;3.47;;;1.73;;
73869;SDS011;64924;42.140;24.762;2023-11-18T05:58:41;4.07;;;1.85;;
73869;SDS011;64924;42.140;24.762;2023-11-18T06:01:10;3.67;;;1.90;;
73869;SDS011;64924;42.140;24.762;2023-11-18T06:03:37;2.25;;;1.90;;
73869;SDS011;64924;42.140;24.762;2023-11-18T06:06:11;1.80;;;1.70;;
73869;SDS011;64924;42.140;24.762;2023-11-18T06:08:41;2.58;;;1.90;;
73869;SDS011;64924;42.140;24.762;2023-11-18T06:11:07;3.17;;;2.67;;
73869;SDS011;64924;42.140;24.762;2023-11-18T06:13:48;3.20;;;2.40;;
73869;SDS011;64924;42.140;24.762;2023-11-18T06:18:49;2.42;;;1.92;;
73869;SDS011;64924;42.140;24.762;2023-11-18T06:21:17;2.60;;;1.80;;
73869;SDS011;64924;42.140;24.762;2023-11-18T06:23:45;7.45;;;3.60;;
73869;SDS011;64924;42.140;24.762;2023-11-18T06:26:12;6.57;;;4.47;;
73869;SDS011;64924;42.140;24.762;2023-11-18T06:28:38;5.20;;;2.65;;
73869;SDS011;64924;42.140;24.762;2023-11-18T06:31:05;2.40;;;2.10;;
73869;SDS011;64924;42.140;24.762;2023-11-18T06:33:36;4.00;;;2.45;;
73869;SDS011;64924;42.140;24.762;2023-11-18T06:36:03;2.65;;;2.05;;
73869;SDS011;64924;42.140;24.762;2023-11-18T06:38:30;2.95;;;1.92;;
73869;SDS011;64924;42.140;24.762;2023-11-18T06:40:55;3.70;;;1.88;;
73869;SDS011;64924;42.140;24.762;2023-11-18T06:43:23;3.42;;;2.10;;
73869;SDS011;64924;42.140;24.762;2023-11-18T06:45:49;2.65;;;2.13;;
73869;SDS011;64924;42.140;24.762;2023-11-18T06:48:15;4.47;;;2.17;;
73869;SDS011;64924;42.140;24.762;2023-11-18T06:50:45;9.10;;;2.05;;
73869;SDS011;64924;42.140;24.762;2023-11-18T06:53:11;6.28;;;2.50;;
73869;SDS011;64924;42.140;24.762;2023-11-18T06:55:37;4.53;;;1.98;;
73869;SDS011;64924;42.140;24.762;2023-11-18T06:58:02;3.70;;;2.38;;
73869;SDS011;64924;42.140;24.762;2023-11-18T07:00:28;3.88;;;1.70;;
73869;SDS011;64924;42.140;24.762;2023-11-18T07:02:54;2.75;;;1.92;;
73869;SDS011;64924;42.140;24.762;2023-11-18T07:05:22;5.00;;;1.77;;
73869;SDS011;64924;42.140;24.762;2023-11-18T07:07:49;2.63;;;1.80;;
73869;SDS011;64924;42.140;24.762;2023-11-18T07:10:15;2.63;;;2.17;;
73869;SDS011;64924;42.140;24.762;2023-11-18T07:12:45;5.35;;;2.00;;
73869;SDS011;64924;42.140;24.762;2023-11-18T07:15:13;2.88;;;2.08;;
73869;SDS011;64924;42.140;24.762;2023-11-18T07:17:39;3.70;;;1.55;;
73869;SDS011;64924;42.140;24.762;2023-11-18T07:20:05;2.00;;;1.58;;
73869;SDS011;64924;42.140;24.762;2023-11-18T07:22:31;1.95;;;1.52;;
73869;SDS011;64924;42.140;24.762;2023-11-18T07:24:56;4.90;;;1.40;;
73869;SDS011;64924;42.140;24.762;2023-11-18T07:27:22;4.85;;;1.63;;
73869;SDS011;64924;42.140;24.762;2023-11-18T07:29:48;2.47;;;1.73;;
73869;SDS011;64924;42.140;24.762;2023-11-18T07:32:13;10.43;;;1.98;;
73869;SDS011;64924;42.140;24.762;2023-11-18T07:34:39;3.00;;;1.80;;
73869;SDS011;64924;42.140;24.762;2023-11-18T07:37:06;1.92;;;1.60;;
73869;SDS011;64924;42.140;24.762;2023-11-18T07:39:33;2.25;;;1.50;;
73869;SDS011;64924;42.140;24.762;2023-11-18T07:42:13;2.25;;;1.45;;
73869;SDS011;64924;42.140;24.762;2023-11-18T07:44:39;1.60;;;1.20;;
73869;SDS011;64924;42.140;24.762;2023-11-18T07:47:05;2.17;;;1.48;;
73869;SDS011;64924;42.140;24.762;2023-11-18T07:49:31;2.17;;;1.45;;
73869;SDS011;64924;42.140;24.762;2023-11-18T07:52:01;3.08;;;1.40;;
73869;SDS011;64924;42.140;24.762;2023-11-18T07:54:27;3.15;;;1.20;;
73869;SDS011;64924;42.140;24.762;2023-11-18T07:56:52;3.67;;;1.95;;
73869;SDS011;64924;42.140;24.762;2023-11-18T07:59:19;12.30;;;1.10;;
73869;SDS011;64924;42.140;24.762;2023-11-18T08:01:45;2.67;;;1.05;;
73869;SDS011;64924;42.140;24.762;2023-11-18T08:04:11;1.42;;;0.90;;
73869;SDS011;64924;42.140;24.762;2023-11-18T08:06:41;7.45;;;0.90;;
73869;SDS011;64924;42.140;24.762;2023-11-18T08:09:08;3.58;;;2.03;;
73869;SDS011;64924;42.140;24.762;2023-11-18T08:11:37;4.55;;;1.35;;
73869;SDS011;64924;42.140;24.762;2023-11-18T08:14:04;4.15;;;1.50;;
73869;SDS011;64924;42.140;24.762;2023-11-18T08:16:29;4.35;;;1.15;;
73869;SDS011;64924;42.140;24.762;2023-11-18T08:18:55;5.07;;;1.15;;
73869;SDS011;64924;42.140;24.762;2023-11-18T08:21:21;2.10;;;1.10;;
73869;SDS011;64924;42.140;24.762;2023-11-18T08:23:47;0.88;;;0.65;;
73869;SDS011;64924;42.140;24.762;2023-11-18T08:26:13;4.78;;;1.20;;
73869;SDS011;64924;42.140;24.762;2023-11-18T08:28:39;5.25;;;1.10;;
73869;SDS011;64924;42.140;24.762;2023-11-18T08:31:05;3.65;;;0.98;;
73869;SDS011;64924;42.140;24.762;2023-11-18T08:33:32;1.67;;;0.80;;
73869;SDS011;64924;42.140;24.762;2023-11-18T08:35:58;1.20;;;0.90;;
73869;SDS011;64924;42.140;24.762;2023-11-18T08:38:24;3.10;;;0.95;;
73869;SDS011;64924;42.140;24.762;2023-11-18T08:40:50;2.45;;;0.88;;
73869;SDS011;64924;42.140;24.762;2023-11-18T08:43:16;1.50;;;0.77;;
73869;SDS011;64924;42.140;24.762;2023-11-18T08:45:42;2.35;;;0.98;;
73869;SDS011;64924;42.140;24.762;2023-11-18T08:48:07;6.90;;;1.45;;
73869;SDS011;64924;42.140;24.762;2023-11-18T08:50:33;1.40;;;0.75;;
73869;SDS011;64924;42.140;24.762;2023-11-18T08:53:00;2.50;;;1.27;;
73869;SDS011;64924;42.140;24.762;2023-11-18T08:55:30;2.40;;;1.42;;
73869;SDS011;64924;42.140;24.762;2023-11-18T08:58:07;1.75;;;1.00;;
73869;SDS011;64924;42.140;24.762;2023-11-18T09:00:47;2.17;;;0.90;;
73869;SDS011;64924;42.140;24.762;2023-11-18T09:03:18;1.55;;;0.85;;
73869;SDS011;64924;42.140;24.762;2023-11-18T09:05:59;3.47;;;1.60;;
73869;SDS011;64924;42.140;24.762;2023-11-18T09:08:36;2.60;;;1.30;;
73869;SDS011;64924;42.140;24.762;2023-11-18T09:11:08;6.82;;;1.23;;
73869;SDS011;64924;42.140;24.762;2023-11-18T09:13:45;2.03;;;0.80;;
73869;SDS011;64924;42.140;24.762;2023-11-18T09:16:18;3.05;;;0.90;;
73869;SDS011;64924;42.140;24.762;2023-11-18T09:18:47;14.27;;;1.38;;
73869;SDS011;64924;42.140;24.762;2023-11-18T09:21:13;3.20;;;0.95;;
73869;SDS011;64924;42.140;24.762;2023-11-18T09:23:39;4.68;;;1.02;;
73869;SDS011;64924;42.140;24.762;2023-11-18T09:26:06;4.20;;;0.85;;
73869;SDS011;64924;42.140;24.762;2023-11-18T09:28:35;4.15;;;0.80;;
73869;SDS011;64924;42.140;24.762;2023-11-18T09:31:02;5.70;;;1.30;;
73869;SDS011;64924;42.140;24.762;2023-11-18T09:33:31;8.20;;;1.95;;
73869;SDS011;64924;42.140;24.762;2023-11-18T09:36:04;4.97;;;1.90;;
73869;SDS011;64924;42.140;24.762;2023-11-18T09:38:40;4.82;;;0.93;;
73869;SDS011;64924;42.140;24.762;2023-11-18T09:41:07;4.22;;;1.92;;
73869;SDS011;64924;42.140;24.762;2023-11-18T09:43:38;2.75;;;1.23;;
73869;SDS011;64924;42.140;24.762;2023-11-18T09:46:12;3.22;;;1.23;;
73869;SDS011;64924;42.140;24.762;2023-11-18T09:48:43;2.40;;;0.93;;
73869;SDS011;64924;42.140;24.762;2023-11-18T09:53:51;6.47;;;1.88;;
73869;SDS011;64924;42.140;24.762;2023-11-18T09:56:31;10.57;;;1.08;;
73869;SDS011;64924;42.140;24.762;2023-11-18T10:01:35;2.08;;;1.35;;
73869;SDS011;64924;42.140;24.762;2023-11-18T10:04:05;5.68;;;2.45;;
73869;SDS011;64924;42.140;24.762;2023-11-18T10:06:32;4.03;;;1.75;;
73869;SDS011;64924;42.140;24.762;2023-11-18T10:09:01;2.03;;;0.90;;
73869;SDS011;64924;42.140;24.762;2023-11-18T10:11:40;5.38;;;1.35;;
73869;SDS011;64924;42.140;24.762;2023-11-18T10:14:11;2.90;;;1.00;;
73869;SDS011;64924;42.140;24.762;2023-11-18T10:16:40;5.72;;;3.63;;
73869;SDS011;64924;42.140;24.762;2023-11-18T10:19:07;2.95;;;0.95;;
73869;SDS011;64924;42.140;24.762;2023-11-18T10:21:37;4.05;;;0.73;;
73869;SDS011;64924;42.140;24.762;2023-11-18T10:24:09;5.85;;;0.90;;
73869;SDS011;64924;42.140;24.762;2023-11-18T10:26:44;2.20;;;1.17;;
73869;SDS011;64924;42.140;24.762;2023-11-18T10:29:11;3.22;;;1.27;;
73869;SDS011;64924;42.140;24.762;2023-11-18T10:31:38;4.50;;;1.30;;
73869;SDS011;64924;42.140;24.762;2023-11-18T10:34:13;6.68;;;3.83;;
73869;SDS011;64924;42.140;24.762;2023-11-18T10:36:58;6.38;;;2.42;;
73869;SDS011;64924;42.140;24.762;2023-11-18T10:39:31;4.10;;;1.02;;
73869;SDS011;64924;42.140;24.762;2023-11-18T10:42:00;3.10;;;1.10;;
73869;SDS011;64924;42.140;24.762;2023-11-18T10:44:26;2.10;;;1.15;;
73869;SDS011;64924;42.140;24.762;2023-11-18T10:46:52;4.88;;;1.00;;
73869;SDS011;64924;42.140;24.762;2023-11-18T10:49:21;5.82;;;1.58;;
73869;SDS011;64924;42.140;24.762;2023-11-18T10:51:47;2.15;;;1.00;;
73869;SDS011;64924;42.140;24.762;2023-11-18T10:54:12;4.90;;;1.15;;
73869;SDS011;64924;42.140;24.762;2023-11-18T10:56:48;10.32;;;1.33;;
73869;SDS011;64924;42.140;24.762;2023-11-18T11:01:41;2.15;;;1.10;;
73869;SDS011;64924;42.140;24.762;2023-11-18T11:04:08;1.73;;;1.02;;
73869;SDS011;64924;42.140;24.762;2023-11-18T11:06:35;11.75;;;1.40;;
73869;SDS011;64924;42.140;24.762;2023-11-18T11:09:07;2.72;;;1.40;;
73869;SDS011;64924;42.140;24.762;2023-11-18T11:11:48;3.17;;;0.90;;
73869;SDS011;64924;42.140;24.762;2023-11-18T11:14:17;5.25;;;1.33;;
73869;SDS011;64924;42.140;24.762;2023-11-18T11:17:00;2.55;;;1.08;;
73869;SDS011;64924;42.140;24.762;2023-11-18T11:19:38;1.83;;;1.00;;
73869;SDS011;64924;42.140;24.762;2023-11-18T11:22:14;2.80;;;1.17;;
73869;SDS011;64924;42.140;24.762;2023-11-18T11:29:55;6.13;;;1.20;;
73869;SDS011;64924;42.140;24.762;2023-11-18T11:32:35;11.52;;;1.77;;
73869;SDS011;64924;42.140;24.762;2023-11-18T11:35:16;6.38;;;1.63;;
73869;SDS011;64924;42.140;24.762;2023-11-18T11:37:47;2.15;;;1.38;;
73869;SDS011;64924;42.140;24.762;2023-11-18T11:40:15;3.72;;;1.38;;
73869;SDS011;64924;42.140;24.762;2023-11-18T11:42:48;5.60;;;1.50;;
73869;SDS011;64924;42.140;24.762;2023-11-18T11:45:21;7.03;;;2.00;;
73869;SDS011;64924;42.140;24.762;2023-11-18T11:47:53;2.65;;;1.20;;
73869;SDS011;64924;42.140;24.762;2023-11-18T11:50:37;3.00;;;1.48;;
73869;SDS011;64924;42.140;24.762;2023-11-18T11:53:15;3.42;;;1.30;;
73869;SDS011;64924;42.140;24.762;2023-11-18T11:55:46;2.50;;;1.10;;
73869;SDS011;64924;42.140;24.762;2023-11-18T11:58:29;3.33;;;0.90;;
73869;SDS011;64924;42.140;24.762;2023-11-18T12:01:00;5.75;;;1.40;;
73869;SDS011;64924;42.140;24.762;2023-11-18T12:03:32;4.20;;;1.08;;
73869;SDS011;64924;42.140;24.762;2023-11-18T12:06:04;1.15;;;0.82;;
73869;SDS011;64924;42.140;24.762;2023-11-18T12:08:33;4.47;;;1.40;;
73869;SDS011;64924;42.140;24.762;2023-11-18T12:11:01;3.50;;;1.35;;
73869;SDS011;64924;42.140;24.762;2023-11-18T12:13:27;3.95;;;1.92;;
73869;SDS011;64924;42.140;24.762;2023-11-18T12:15:57;2.58;;;1.35;;
73869;SDS011;64924;42.140;24.762;2023-11-18T12:18:23;4.28;;;1.30;;
73869;SDS011;64924;42.140;24.762;2023-11-18T12:20:49;2.67;;;1.30;;
73869;SDS011;64924;42.140;24.762;2023-11-18T12:23:23;3.00;;;1.40;;
73869;SDS011;64924;42.140;24.762;2023-11-18T12:25:52;2.58;;;1.20;;
73869;SDS011;64924;42.140;24.762;2023-11-18T12:28:27;1.50;;;1.08;;
73869;SDS011;64924;42.140;24.762;2023-11-18T12:30:55;6.43;;;1.70;;
73869;SDS011;64924;42.140;24.762;2023-11-18T12:33:25;5.47;;;1.45;;
73869;SDS011;64924;42.140;24.762;2023-11-18T12:39:02;6.32;;;1.83;;
73869;SDS011;64924;42.140;24.762;2023-11-18T12:42:06;5.55;;;1.30;;
73869;SDS011;64924;42.140;24.762;2023-11-18T12:47:31;2.38;;;1.15;;
73869;SDS011;64924;42.140;24.762;2023-11-18T12:50:02;3.38;;;1.77;;
73869;SDS011;64924;42.140;24.762;2023-11-18T12:52:42;2.65;;;1.48;;
73869;SDS011;64924;42.140;24.762;2023-11-18T12:55:09;2.08;;;1.25;;
73869;SDS011;64924;42.140;24.762;2023-11-18T12:57:45;3.38;;;1.60;;
73869;SDS011;64924;42.140;24.762;2023-11-18T13:00:12;3.45;;;1.70;;
73869;SDS011;64924;42.140;24.762;2023-11-18T13:02:42;2.55;;;1.33;;
73869;SDS011;64924;42.140;24.762;2023-11-18T13:05:07;2.83;;;1.52;;
73869;SDS011;64924;42.140;24.762;2023-11-18T13:07:38;3.78;;;1.08;;
73869;SDS011;64924;42.140;24.762;2023-11-18T13:10:05;2.67;;;1.25;;
73869;SDS011;64924;42.140;24.762;2023-11-18T13:12:31;1.42;;;1.02;;
73869;SDS011;64924;42.140;24.762;2023-11-18T13:14:56;2.00;;;1.23;;
73869;SDS011;64924;42.140;24.762;2023-11-18T13:17:22;2.97;;;1.45;;
73869;SDS011;64924;42.140;24.762;2023-11-18T13:19:47;4.15;;;1.42;;
73869;SDS011;64924;42.140;24.762;2023-11-18T13:22:16;5.13;;;1.40;;
73869;SDS011;64924;42.140;24.762;2023-11-18T13:24:44;1.58;;;1.25;;
73869;SDS011;64924;42.140;24.762;2023-11-18T13:27:12;4.03;;;1.77;;
73869;SDS011;64924;42.140;24.762;2023-11-18T13:29:44;3.95;;;1.55;;
73869;SDS011;64924;42.140;24.762;2023-11-18T13:32:14;3.97;;;1.60;;
73869;SDS011;64924;42.140;24.762;2023-11-18T13:34:40;3.00;;;1.40;;
73869;SDS011;64924;42.140;24.762;2023-11-18T13:37:07;4.28;;;1.50;;
73869;SDS011;64924;42.140;24.762;2023-11-18T13:39:38;4.72;;;1.42;;
73869;SDS011;64924;42.140;24.762;2023-11-18T13:44:46;2.53;;;1.15;;
73869;SDS011;64924;42.140;24.762;2023-11-18T13:47:13;2.05;;;0.95;;
73869;SDS011;64924;42.140;24.762;2023-11-18T13:49:41;3.17;;;1.25;;
73869;SDS011;64924;42.140;24.762;2023-11-18T13:52:07;6.45;;;1.65;;
73869;SDS011;64924;42.140;24.762;2023-11-18T13:54:37;4.22;;;1.50;;
73869;SDS011;64924;42.140;24.762;2023-11-18T13:57:06;3.53;;;1.05;;
73869;SDS011;64924;42.140;24.762;2023-11-18T13:59:32;5.18;;;1.70;;
73869;SDS011;64924;42.140;24.762;2023-11-18T14:01:58;3.47;;;1.08;;
73869;SDS011;64924;42.140;24.762;2023-11-18T14:04:27;2.20;;;1.30;;
73869;SDS011;64924;42.140;24.762;2023-11-18T14:06:57;3.40;;;1.80;;
73869;SDS011;64924;42.140;24.762;2023-11-18T14:09:24;2.00;;;1.15;;
73869;SDS011;64924;42.140;24.762;2023-11-18T14:11:53;5.28;;;1.35;;
73869;SDS011;64924;42.140;24.762;2023-11-18T14:14:22;3.70;;;1.83;;
73869;SDS011;64924;42.140;24.762;2023-11-18T14:16:50;2.28;;;1.42;;
73869;SDS011;64924;42.140;24.762;2023-11-18T14:19:18;4.30;;;1.60;;
73869;SDS011;64924;42.140;24.762;2023-11-18T14:21:44;2.42;;;1.73;;
73869;SDS011;64924;42.140;24.762;2023-11-18T14:24:10;2.55;;;1.23;;
73869;SDS011;64924;42.140;24.762;2023-11-18T14:26:39;4.72;;;1.50;;
73869;SDS011;64924;42.140;24.762;2023-11-18T14:29:06;3.20;;;1.60;;
73869;SDS011;64924;42.140;24.762;2023-11-18T14:31:32;1.20;;;1.00;;
73869;SDS011;64924;42.140;24.762;2023-11-18T14:33:59;2.92;;;1.67;;
73869;SDS011;64924;42.140;24.762;2023-11-18T14:36:28;4.60;;;2.22;;
73869;SDS011;64924;42.140;24.762;2023-11-18T14:38:54;5.15;;;1.70;;
73869;SDS011;64924;42.140;24.762;2023-11-18T14:41:19;3.00;;;1.38;;
73869;SDS011;64924;42.140;24.762;2023-11-18T14:43:49;6.05;;;1.45;;
73869;SDS011;64924;42.140;24.762;2023-11-18T14:46:15;2.55;;;1.50;;
73869;SDS011;64924;42.140;24.762;2023-11-18T14:48:41;3.70;;;2.17;;
73869;SDS011;64924;42.140;24.762;2023-11-18T14:51:06;3.13;;;1.20;;
73869;SDS011;64924;42.140;24.762;2023-11-18T14:53:32;4.10;;;2.28;;
73869;SDS011;64924;42.140;24.762;2023-11-18T14:55:59;6.78;;;2.42;;
73869;SDS011;64924;42.140;24.762;2023-11-18T14:58:25;2.08;;;1.30;;
73869;SDS011;64924;42.140;24.762;2023-11-18T15:00:51;2.60;;;1.50;;
73869;SDS011;64924;42.140;24.762;2023-11-18T15:03:17;6.68;;;1.77;;
73869;SDS011;64924;42.140;24.762;2023-11-18T15:05:42;5.55;;;1.77;;